sensor_id;sensor_type;location;lat;lon;timestamp;P1;durP1;ratioP1;P2;durP2;ratioP2
78410;SDS011;67706;51.074;-1.796;2023-08-24T00:03:02;11.68;;;3.22;;
78410;SDS011;67706;51.074;-1.796;2023-08-24T00:05:30;7.38;;;2.83;;
78410;SDS011;67706;51.074;-1.796;2023-08-24T00:07:58;3.90;;;2.13;;
78410;SDS011;67706;51.074;-1.796;2023-08-24T00:10:25;4.68;;;2.30;;
78410;SDS011;67706;51.074;-1.796;2023-08-24T00:12:51;6.07;;;2.15;;
78410;SDS011;67706;51.074;-1.796;2023-08-24T00:17:43;4.25;;;1.77;;
78410;SDS011;67706;51.074;-1.796;2023-08-24T00:20:09;4.68;;;2.13;;
78410;SDS011;67706;51.074;-1.796;2023-08-24T00:22:37;5.40;;;2.30;;
78410;SDS011;67706;51.074;-1.796;2023-08-24T00:25:04;4.88;;;2.05;;
78410;SDS011;67706;51.074;-1.796;2023-08-24T00:27:30;5.63;;;2.30;;
78410;SDS011;67706;51.074;-1.796;2023-08-24T00:29:56;3.80;;;2.20;;
78410;SDS011;67706;51.074;-1.796;2023-08-24T00:32:22;6.90;;;2.67;;
78410;SDS011;67706;51.074;-1.796;2023-08-24T00:34:49;3.83;;;2.10;;
78410;SDS011;67706;51.074;-1.796;2023-08-24T00:37:15;5.38;;;2.60;;
78410;SDS011;67706;51.074;-1.796;2023-08-24T00:39:41;6.20;;;2.60;;
78410;SDS011;67706;51.074;-1.796;2023-08-24T00:42:07;8.63;;;3.35;;
78410;SDS011;67706;51.074;-1.796;2023-08-24T00:44:38;7.55;;;3.30;;
78410;SDS011;67706;51.074;-1.796;2023-08-24T00:49:30;6.55;;;3.05;;
78410;SDS011;67706;51.074;-1.796;2023-08-24T00:51:56;6.53;;;3.13;;
78410;SDS011;67706;51.074;-1.796;2023-08-24T00:56:49;6.95;;;3.03;;
78410;SDS011;67706;51.074;-1.796;2023-08-24T00:59:15;6.43;;;2.60;;
78410;SDS011;67706;51.074;-1.796;2023-08-24T01:04:07;7.57;;;2.70;;
78410;SDS011;67706;51.074;-1.796;2023-08-24T01:06:33;8.60;;;2.88;;
78410;SDS011;67706;51.074;-1.796;2023-08-24T01:11:26;6.47;;;3.28;;
78410;SDS011;67706;51.074;-1.796;2023-08-24T01:14:07;6.07;;;2.70;;
78410;SDS011;67706;51.074;-1.796;2023-08-24T01:16:41;5.13;;;2.17;;
78410;SDS011;67706;51.074;-1.796;2023-08-24T01:19:17;5.70;;;2.70;;
78410;SDS011;67706;51.074;-1.796;2023-08-24T01:21:56;6.32;;;2.85;;
78410;SDS011;67706;51.074;-1.796;2023-08-24T01:24:26;7.22;;;3.00;;
78410;SDS011;67706;51.074;-1.796;2023-08-24T01:27:03;7.82;;;3.70;;
78410;SDS011;67706;51.074;-1.796;2023-08-24T01:29:30;10.00;;;3.28;;
78410;SDS011;67706;51.074;-1.796;2023-08-24T01:31:57;6.80;;;3.45;;
78410;SDS011;67706;51.074;-1.796;2023-08-24T01:34:23;8.43;;;3.78;;
78410;SDS011;67706;51.074;-1.796;2023-08-24T01:36:49;11.48;;;4.07;;
78410;SDS011;67706;51.074;-1.796;2023-08-24T01:39:18;9.77;;;3.63;;
78410;SDS011;67706;51.074;-1.796;2023-08-24T01:41:52;11.95;;;3.63;;
78410;SDS011;67706;51.074;-1.796;2023-08-24T01:44:22;10.45;;;3.97;;
78410;SDS011;67706;51.074;-1.796;2023-08-24T01:46:50;13.82;;;4.18;;
78410;SDS011;67706;51.074;-1.796;2023-08-24T01:49:18;9.57;;;4.55;;
78410;SDS011;67706;51.074;-1.796;2023-08-24T01:51:45;8.63;;;3.70;;
78410;SDS011;67706;51.074;-1.796;2023-08-24T01:54:11;14.30;;;4.15;;
78410;SDS011;67706;51.074;-1.796;2023-08-24T01:56:38;8.48;;;4.00;;
78410;SDS011;67706;51.074;-1.796;2023-08-24T01:59:04;9.82;;;3.47;;
78410;SDS011;67706;51.074;-1.796;2023-08-24T02:01:31;7.18;;;3.50;;
78410;SDS011;67706;51.074;-1.796;2023-08-24T02:03:57;6.75;;;2.85;;
78410;SDS011;67706;51.074;-1.796;2023-08-24T02:06:24;8.50;;;3.50;;
78410;SDS011;67706;51.074;-1.796;2023-08-24T02:08:51;5.68;;;3.00;;
78410;SDS011;67706;51.074;-1.796;2023-08-24T02:13:43;8.75;;;3.58;;
78410;SDS011;67706;51.074;-1.796;2023-08-24T02:18:35;7.60;;;3.33;;
78410;SDS011;67706;51.074;-1.796;2023-08-24T02:21:06;9.52;;;3.70;;
78410;SDS011;67706;51.074;-1.796;2023-08-24T02:23:33;9.30;;;3.80;;
78410;SDS011;67706;51.074;-1.796;2023-08-24T02:25:59;8.05;;;2.97;;
78410;SDS011;67706;51.074;-1.796;2023-08-24T02:28:25;6.40;;;2.88;;
78410;SDS011;67706;51.074;-1.796;2023-08-24T02:30:51;13.57;;;3.60;;
78410;SDS011;67706;51.074;-1.796;2023-08-24T02:33:17;8.48;;;2.72;;
78410;SDS011;67706;51.074;-1.796;2023-08-24T02:38:12;7.78;;;3.00;;
78410;SDS011;67706;51.074;-1.796;2023-08-24T02:43:04;9.15;;;2.80;;
78410;SDS011;67706;51.074;-1.796;2023-08-24T02:47:55;8.27;;;3.10;;
78410;SDS011;67706;51.074;-1.796;2023-08-24T02:52:48;8.90;;;3.00;;
78410;SDS011;67706;51.074;-1.796;2023-08-24T02:55:14;8.75;;;3.53;;
78410;SDS011;67706;51.074;-1.796;2023-08-24T02:57:40;8.00;;;3.03;;
78410;SDS011;67706;51.074;-1.796;2023-08-24T03:00:07;8.93;;;3.05;;
78410;SDS011;67706;51.074;-1.796;2023-08-24T03:02:35;7.30;;;3.17;;
78410;SDS011;67706;51.074;-1.796;2023-08-24T03:05:01;4.10;;;2.60;;
78410;SDS011;67706;51.074;-1.796;2023-08-24T03:07:27;5.60;;;2.58;;
78410;SDS011;67706;51.074;-1.796;2023-08-24T03:09:54;9.20;;;3.72;;
78410;SDS011;67706;51.074;-1.796;2023-08-24T03:12:20;7.70;;;3.08;;
78410;SDS011;67706;51.074;-1.796;2023-08-24T03:14:46;9.88;;;3.08;;
78410;SDS011;67706;51.074;-1.796;2023-08-24T03:17:12;8.68;;;3.15;;
78410;SDS011;67706;51.074;-1.796;2023-08-24T03:19:38;9.45;;;3.85;;
78410;SDS011;67706;51.074;-1.796;2023-08-24T03:24:30;14.00;;;3.58;;
78410;SDS011;67706;51.074;-1.796;2023-08-24T03:26:57;8.80;;;3.85;;
78410;SDS011;67706;51.074;-1.796;2023-08-24T03:29:23;10.40;;;4.28;;
78410;SDS011;67706;51.074;-1.796;2023-08-24T03:34:15;9.07;;;3.42;;
78410;SDS011;67706;51.074;-1.796;2023-08-24T03:36:41;10.20;;;3.20;;
78410;SDS011;67706;51.074;-1.796;2023-08-24T03:41:33;8.38;;;3.10;;
78410;SDS011;67706;51.074;-1.796;2023-08-24T03:44:00;5.13;;;2.33;;
78410;SDS011;67706;51.074;-1.796;2023-08-24T03:46:26;7.10;;;2.58;;
78410;SDS011;67706;51.074;-1.796;2023-08-24T03:48:52;8.32;;;2.95;;
78410;SDS011;67706;51.074;-1.796;2023-08-24T03:53:44;10.65;;;3.65;;
78410;SDS011;67706;51.074;-1.796;2023-08-24T03:56:10;10.75;;;3.90;;
78410;SDS011;67706;51.074;-1.796;2023-08-24T03:58:36;10.52;;;3.92;;
78410;SDS011;67706;51.074;-1.796;2023-08-24T04:03:29;7.50;;;3.35;;
78410;SDS011;67706;51.074;-1.796;2023-08-24T04:05:55;12.00;;;3.78;;
78410;SDS011;67706;51.074;-1.796;2023-08-24T04:10:47;7.07;;;3.30;;
78410;SDS011;67706;51.074;-1.796;2023-08-24T04:15:39;10.80;;;4.60;;
78410;SDS011;67706;51.074;-1.796;2023-08-24T04:20:31;8.25;;;3.45;;
78410;SDS011;67706;51.074;-1.796;2023-08-24T04:22:58;10.15;;;3.90;;
78410;SDS011;67706;51.074;-1.796;2023-08-24T04:27:50;9.95;;;3.53;;
78410;SDS011;67706;51.074;-1.796;2023-08-24T04:30:16;11.23;;;4.25;;
78410;SDS011;67706;51.074;-1.796;2023-08-24T04:35:09;8.55;;;3.97;;
78410;SDS011;67706;51.074;-1.796;2023-08-24T04:37:35;12.43;;;4.55;;
78410;SDS011;67706;51.074;-1.796;2023-08-24T04:40:02;12.00;;;4.45;;
78410;SDS011;67706;51.074;-1.796;2023-08-24T04:42:29;10.85;;;3.78;;
78410;SDS011;67706;51.074;-1.796;2023-08-24T04:47:21;8.43;;;3.50;;
78410;SDS011;67706;51.074;-1.796;2023-08-24T04:52:13;8.00;;;3.58;;
78410;SDS011;67706;51.074;-1.796;2023-08-24T04:54:39;6.22;;;3.20;;
78410;SDS011;67706;51.074;-1.796;2023-08-24T04:57:05;6.35;;;3.70;;
78410;SDS011;67706;51.074;-1.796;2023-08-24T04:59:32;8.27;;;3.88;;
78410;SDS011;67706;51.074;-1.796;2023-08-24T05:04:24;4.93;;;3.17;;
78410;SDS011;67706;51.074;-1.796;2023-08-24T05:09:16;4.57;;;2.40;;
78410;SDS011;67706;51.074;-1.796;2023-08-24T05:11:43;5.50;;;2.72;;
78410;SDS011;67706;51.074;-1.796;2023-08-24T05:14:09;5.00;;;2.80;;
78410;SDS011;67706;51.074;-1.796;2023-08-24T05:16:35;5.30;;;2.45;;
78410;SDS011;67706;51.074;-1.796;2023-08-24T05:19:01;6.80;;;2.78;;
78410;SDS011;67706;51.074;-1.796;2023-08-24T05:21:28;5.60;;;2.70;;
78410;SDS011;67706;51.074;-1.796;2023-08-24T05:23:54;7.00;;;3.38;;
78410;SDS011;67706;51.074;-1.796;2023-08-24T05:26:21;5.15;;;3.03;;
78410;SDS011;67706;51.074;-1.796;2023-08-24T05:28:48;7.85;;;2.97;;
78410;SDS011;67706;51.074;-1.796;2023-08-24T05:33:39;4.68;;;2.80;;
78410;SDS011;67706;51.074;-1.796;2023-08-24T05:38:32;6.20;;;2.88;;
78410;SDS011;67706;51.074;-1.796;2023-08-24T05:40:58;8.05;;;3.00;;
78410;SDS011;67706;51.074;-1.796;2023-08-24T05:43:25;7.32;;;2.95;;
78410;SDS011;67706;51.074;-1.796;2023-08-24T05:45:51;5.95;;;3.00;;
78410;SDS011;67706;51.074;-1.796;2023-08-24T05:48:18;6.28;;;2.72;;
78410;SDS011;67706;51.074;-1.796;2023-08-24T05:50:44;5.68;;;2.92;;
78410;SDS011;67706;51.074;-1.796;2023-08-24T05:53:10;6.10;;;3.10;;
78410;SDS011;67706;51.074;-1.796;2023-08-24T05:55:36;6.03;;;2.95;;
78410;SDS011;67706;51.074;-1.796;2023-08-24T05:58:03;7.72;;;2.97;;
78410;SDS011;67706;51.074;-1.796;2023-08-24T06:00:30;4.55;;;2.75;;
78410;SDS011;67706;51.074;-1.796;2023-08-24T06:02:56;3.83;;;2.13;;
78410;SDS011;67706;51.074;-1.796;2023-08-24T06:07:48;6.30;;;2.65;;
78410;SDS011;67706;51.074;-1.796;2023-08-24T06:10:14;6.43;;;2.60;;
78410;SDS011;67706;51.074;-1.796;2023-08-24T06:12:40;6.20;;;3.35;;
78410;SDS011;67706;51.074;-1.796;2023-08-24T06:15:06;7.95;;;3.00;;
78410;SDS011;67706;51.074;-1.796;2023-08-24T06:17:35;7.85;;;2.97;;
78410;SDS011;67706;51.074;-1.796;2023-08-24T06:20:02;9.50;;;3.72;;
78410;SDS011;67706;51.074;-1.796;2023-08-24T06:22:31;6.00;;;2.97;;
78410;SDS011;67706;51.074;-1.796;2023-08-24T06:27:25;5.93;;;2.60;;
78410;SDS011;67706;51.074;-1.796;2023-08-24T06:29:51;5.70;;;2.28;;
78410;SDS011;67706;51.074;-1.796;2023-08-24T06:34:43;5.80;;;2.60;;
78410;SDS011;67706;51.074;-1.796;2023-08-24T06:37:10;6.38;;;2.33;;
78410;SDS011;67706;51.074;-1.796;2023-08-24T06:39:36;4.85;;;2.42;;
78410;SDS011;67706;51.074;-1.796;2023-08-24T06:42:02;4.22;;;2.47;;
78410;SDS011;67706;51.074;-1.796;2023-08-24T06:44:28;5.13;;;2.60;;
78410;SDS011;67706;51.074;-1.796;2023-08-24T06:46:54;5.15;;;2.65;;
78410;SDS011;67706;51.074;-1.796;2023-08-24T06:49:20;8.70;;;3.03;;
78410;SDS011;67706;51.074;-1.796;2023-08-24T06:54:13;7.55;;;3.15;;
78410;SDS011;67706;51.074;-1.796;2023-08-24T06:56:41;6.50;;;3.08;;
78410;SDS011;67706;51.074;-1.796;2023-08-24T06:59:08;7.60;;;3.22;;
78410;SDS011;67706;51.074;-1.796;2023-08-24T07:01:36;5.20;;;3.00;;
78410;SDS011;67706;51.074;-1.796;2023-08-24T07:04:02;5.07;;;2.92;;
78410;SDS011;67706;51.074;-1.796;2023-08-24T07:06:28;9.52;;;4.00;;
78410;SDS011;67706;51.074;-1.796;2023-08-24T07:08:55;9.13;;;4.47;;
78410;SDS011;67706;51.074;-1.796;2023-08-24T07:11:21;9.05;;;4.03;;
78410;SDS011;67706;51.074;-1.796;2023-08-24T07:13:48;9.68;;;5.10;;
78410;SDS011;67706;51.074;-1.796;2023-08-24T07:16:15;11.63;;;5.22;;
78410;SDS011;67706;51.074;-1.796;2023-08-24T07:18:41;9.65;;;4.07;;
78410;SDS011;67706;51.074;-1.796;2023-08-24T07:21:07;12.07;;;4.45;;
78410;SDS011;67706;51.074;-1.796;2023-08-24T07:23:33;10.68;;;3.92;;
78410;SDS011;67706;51.074;-1.796;2023-08-24T07:28:25;9.23;;;4.70;;
78410;SDS011;67706;51.074;-1.796;2023-08-24T07:33:21;8.07;;;4.47;;
78410;SDS011;67706;51.074;-1.796;2023-08-24T07:38:12;8.73;;;4.05;;
78410;SDS011;67706;51.074;-1.796;2023-08-24T07:40:38;8.30;;;4.05;;
78410;SDS011;67706;51.074;-1.796;2023-08-24T07:45:31;7.68;;;3.70;;
78410;SDS011;67706;51.074;-1.796;2023-08-24T07:47:57;9.65;;;3.17;;
78410;SDS011;67706;51.074;-1.796;2023-08-24T07:50:23;7.80;;;3.78;;
78410;SDS011;67706;51.074;-1.796;2023-08-24T07:55:15;6.82;;;3.60;;
78410;SDS011;67706;51.074;-1.796;2023-08-24T07:57:41;6.70;;;3.50;;
78410;SDS011;67706;51.074;-1.796;2023-08-24T08:00:08;6.93;;;3.30;;
78410;SDS011;67706;51.074;-1.796;2023-08-24T08:02:36;6.75;;;3.22;;
78410;SDS011;67706;51.074;-1.796;2023-08-24T08:05:03;6.43;;;2.75;;
78410;SDS011;67706;51.074;-1.796;2023-08-24T08:07:29;7.15;;;3.20;;
78410;SDS011;67706;51.074;-1.796;2023-08-24T08:09:55;8.40;;;3.00;;
78410;SDS011;67706;51.074;-1.796;2023-08-24T08:12:22;5.85;;;2.75;;
78410;SDS011;67706;51.074;-1.796;2023-08-24T08:14:48;7.15;;;2.83;;
78410;SDS011;67706;51.074;-1.796;2023-08-24T08:17:16;9.07;;;3.28;;
78410;SDS011;67706;51.074;-1.796;2023-08-24T08:19:42;12.32;;;4.82;;
78410;SDS011;67706;51.074;-1.796;2023-08-24T08:24:34;7.38;;;3.30;;
78410;SDS011;67706;51.074;-1.796;2023-08-24T08:29:25;6.65;;;3.72;;
78410;SDS011;67706;51.074;-1.796;2023-08-24T08:31:51;10.88;;;4.25;;
78410;SDS011;67706;51.074;-1.796;2023-08-24T08:36:44;7.40;;;3.58;;
78410;SDS011;67706;51.074;-1.796;2023-08-24T08:41:38;7.65;;;4.00;;
78410;SDS011;67706;51.074;-1.796;2023-08-24T08:44:07;8.50;;;3.80;;
78410;SDS011;67706;51.074;-1.796;2023-08-24T08:46:37;7.78;;;4.10;;
78410;SDS011;67706;51.074;-1.796;2023-08-24T08:49:04;8.95;;;4.10;;
78410;SDS011;67706;51.074;-1.796;2023-08-24T08:51:33;7.35;;;4.00;;
78410;SDS011;67706;51.074;-1.796;2023-08-24T08:54:01;10.27;;;4.00;;
78410;SDS011;67706;51.074;-1.796;2023-08-24T08:56:30;8.95;;;4.03;;
78410;SDS011;67706;51.074;-1.796;2023-08-24T08:58:56;9.45;;;4.40;;
78410;SDS011;67706;51.074;-1.796;2023-08-24T09:01:25;7.43;;;3.40;;
78410;SDS011;67706;51.074;-1.796;2023-08-24T09:03:52;6.55;;;3.58;;
78410;SDS011;67706;51.074;-1.796;2023-08-24T09:06:19;11.05;;;4.28;;
78410;SDS011;67706;51.074;-1.796;2023-08-24T09:08:46;9.57;;;3.50;;
78410;SDS011;67706;51.074;-1.796;2023-08-24T09:11:13;13.75;;;4.10;;
78410;SDS011;67706;51.074;-1.796;2023-08-24T09:13:40;7.82;;;3.30;;
78410;SDS011;67706;51.074;-1.796;2023-08-24T09:16:06;4.90;;;2.97;;
78410;SDS011;67706;51.074;-1.796;2023-08-24T09:18:34;9.73;;;3.20;;
78410;SDS011;67706;51.074;-1.796;2023-08-24T09:21:07;10.25;;;4.35;;
78410;SDS011;67706;51.074;-1.796;2023-08-24T09:23:33;11.65;;;4.25;;
78410;SDS011;67706;51.074;-1.796;2023-08-24T09:26:00;9.10;;;3.97;;
78410;SDS011;67706;51.074;-1.796;2023-08-24T09:28:26;10.30;;;3.42;;
78410;SDS011;67706;51.074;-1.796;2023-08-24T09:30:52;12.35;;;4.32;;
78410;SDS011;67706;51.074;-1.796;2023-08-24T09:33:20;7.15;;;3.40;;
78410;SDS011;67706;51.074;-1.796;2023-08-24T09:35:52;5.55;;;2.63;;
78410;SDS011;67706;51.074;-1.796;2023-08-24T09:40:46;5.57;;;1.83;;
78410;SDS011;67706;51.074;-1.796;2023-08-24T09:43:17;4.05;;;2.10;;
78410;SDS011;67706;51.074;-1.796;2023-08-24T09:45:49;4.97;;;2.25;;
78410;SDS011;67706;51.074;-1.796;2023-08-24T09:48:16;4.55;;;1.90;;
78410;SDS011;67706;51.074;-1.796;2023-08-24T09:50:42;7.35;;;2.97;;
78410;SDS011;67706;51.074;-1.796;2023-08-24T09:53:10;7.57;;;2.78;;
78410;SDS011;67706;51.074;-1.796;2023-08-24T09:55:42;6.80;;;2.58;;
78410;SDS011;67706;51.074;-1.796;2023-08-24T10:00:41;4.45;;;2.15;;
78410;SDS011;67706;51.074;-1.796;2023-08-24T10:03:11;5.53;;;2.15;;
78410;SDS011;67706;51.074;-1.796;2023-08-24T10:05:44;6.68;;;2.20;;
78410;SDS011;67706;51.074;-1.796;2023-08-24T10:08:10;4.43;;;1.60;;
78410;SDS011;67706;51.074;-1.796;2023-08-24T10:10:37;8.95;;;2.30;;
78410;SDS011;67706;51.074;-1.796;2023-08-24T10:13:08;8.38;;;2.00;;
78410;SDS011;67706;51.074;-1.796;2023-08-24T10:15:45;3.10;;;1.50;;
78410;SDS011;67706;51.074;-1.796;2023-08-24T10:18:14;4.63;;;2.17;;
78410;SDS011;67706;51.074;-1.796;2023-08-24T10:20:41;3.40;;;1.60;;
78410;SDS011;67706;51.074;-1.796;2023-08-24T10:23:08;4.72;;;1.85;;
78410;SDS011;67706;51.074;-1.796;2023-08-24T10:25:36;7.93;;;2.35;;
78410;SDS011;67706;51.074;-1.796;2023-08-24T10:28:04;3.92;;;2.03;;
78410;SDS011;67706;51.074;-1.796;2023-08-24T10:30:31;5.20;;;2.10;;
78410;SDS011;67706;51.074;-1.796;2023-08-24T10:32:58;4.63;;;1.73;;
78410;SDS011;67706;51.074;-1.796;2023-08-24T10:35:25;5.72;;;2.00;;
78410;SDS011;67706;51.074;-1.796;2023-08-24T10:37:52;5.43;;;1.70;;
78410;SDS011;67706;51.074;-1.796;2023-08-24T10:40:30;6.18;;;2.15;;
78410;SDS011;67706;51.074;-1.796;2023-08-24T10:42:56;7.07;;;1.60;;
78410;SDS011;67706;51.074;-1.796;2023-08-24T10:45:23;4.13;;;1.50;;
78410;SDS011;67706;51.074;-1.796;2023-08-24T10:47:52;6.30;;;1.65;;
78410;SDS011;67706;51.074;-1.796;2023-08-24T10:50:19;6.00;;;1.63;;
78410;SDS011;67706;51.074;-1.796;2023-08-24T10:52:47;5.45;;;1.80;;
78410;SDS011;67706;51.074;-1.796;2023-08-24T10:55:23;5.65;;;1.98;;
78410;SDS011;67706;51.074;-1.796;2023-08-24T10:57:57;3.97;;;1.70;;
78410;SDS011;67706;51.074;-1.796;2023-08-24T11:00:25;4.85;;;1.80;;
78410;SDS011;67706;51.074;-1.796;2023-08-24T11:02:52;2.15;;;1.63;;
78410;SDS011;67706;51.074;-1.796;2023-08-24T11:05:19;2.92;;;1.80;;
78410;SDS011;67706;51.074;-1.796;2023-08-24T11:07:47;4.68;;;1.83;;
78410;SDS011;67706;51.074;-1.796;2023-08-24T11:10:15;4.90;;;1.80;;
78410;SDS011;67706;51.074;-1.796;2023-08-24T11:15:40;7.70;;;2.75;;
78410;SDS011;67706;51.074;-1.796;2023-08-24T11:18:13;3.95;;;1.80;;
78410;SDS011;67706;51.074;-1.796;2023-08-24T11:20:48;6.13;;;1.77;;
78410;SDS011;67706;51.074;-1.796;2023-08-24T11:23:16;4.20;;;1.48;;
78410;SDS011;67706;51.074;-1.796;2023-08-24T11:25:43;6.22;;;1.80;;
78410;SDS011;67706;51.074;-1.796;2023-08-24T11:28:09;3.95;;;1.58;;
78410;SDS011;67706;51.074;-1.796;2023-08-24T11:30:36;3.97;;;1.55;;
78410;SDS011;67706;51.074;-1.796;2023-08-24T11:33:02;3.63;;;1.52;;
78410;SDS011;67706;51.074;-1.796;2023-08-24T11:35:29;4.10;;;1.70;;
78410;SDS011;67706;51.074;-1.796;2023-08-24T11:37:55;4.53;;;1.90;;
78410;SDS011;67706;51.074;-1.796;2023-08-24T11:40:22;5.25;;;1.85;;
78410;SDS011;67706;51.074;-1.796;2023-08-24T11:42:53;4.57;;;1.77;;
78410;SDS011;67706;51.074;-1.796;2023-08-24T11:45:20;4.43;;;1.40;;
78410;SDS011;67706;51.074;-1.796;2023-08-24T11:47:47;4.80;;;2.13;;
78410;SDS011;67706;51.074;-1.796;2023-08-24T11:50:13;3.13;;;1.85;;
78410;SDS011;67706;51.074;-1.796;2023-08-24T11:52:39;5.15;;;1.88;;
78410;SDS011;67706;51.074;-1.796;2023-08-24T11:55:06;5.82;;;1.98;;
78410;SDS011;67706;51.074;-1.796;2023-08-24T11:57:33;5.70;;;2.13;;
78410;SDS011;67706;51.074;-1.796;2023-08-24T11:59:59;3.75;;;2.28;;
78410;SDS011;67706;51.074;-1.796;2023-08-24T12:02:26;4.97;;;2.33;;
78410;SDS011;67706;51.074;-1.796;2023-08-24T12:04:53;3.85;;;2.13;;
78410;SDS011;67706;51.074;-1.796;2023-08-24T12:07:20;5.18;;;2.30;;
78410;SDS011;67706;51.074;-1.796;2023-08-24T12:09:46;3.90;;;2.10;;
78410;SDS011;67706;51.074;-1.796;2023-08-24T12:12:13;5.63;;;2.13;;
78410;SDS011;67706;51.074;-1.796;2023-08-24T12:14:39;3.78;;;1.95;;
78410;SDS011;67706;51.074;-1.796;2023-08-24T12:17:06;5.50;;;2.00;;
78410;SDS011;67706;51.074;-1.796;2023-08-24T12:19:33;4.35;;;1.88;;
78410;SDS011;67706;51.074;-1.796;2023-08-24T12:21:59;8.05;;;2.05;;
78410;SDS011;67706;51.074;-1.796;2023-08-24T12:24:25;7.60;;;2.40;;
78410;SDS011;67706;51.074;-1.796;2023-08-24T12:26:55;3.70;;;2.05;;
78410;SDS011;67706;51.074;-1.796;2023-08-24T12:29:23;4.40;;;1.80;;
78410;SDS011;67706;51.074;-1.796;2023-08-24T12:31:48;4.57;;;1.67;;
78410;SDS011;67706;51.074;-1.796;2023-08-24T12:34:15;3.45;;;1.90;;
78410;SDS011;67706;51.074;-1.796;2023-08-24T12:36:41;3.55;;;1.75;;
78410;SDS011;67706;51.074;-1.796;2023-08-24T12:39:10;6.57;;;2.08;;
78410;SDS011;67706;51.074;-1.796;2023-08-24T12:41:38;3.75;;;1.88;;
78410;SDS011;67706;51.074;-1.796;2023-08-24T12:44:04;3.70;;;2.00;;
78410;SDS011;67706;51.074;-1.796;2023-08-24T12:46:31;8.40;;;2.42;;
78410;SDS011;67706;51.074;-1.796;2023-08-24T12:48:57;8.10;;;2.35;;
78410;SDS011;67706;51.074;-1.796;2023-08-24T12:51:23;7.95;;;2.95;;
78410;SDS011;67706;51.074;-1.796;2023-08-24T12:53:49;5.40;;;1.98;;
78410;SDS011;67706;51.074;-1.796;2023-08-24T12:56:16;4.47;;;2.05;;
78410;SDS011;67706;51.074;-1.796;2023-08-24T12:58:42;3.83;;;1.50;;
78410;SDS011;67706;51.074;-1.796;2023-08-24T13:01:08;3.10;;;1.83;;
78410;SDS011;67706;51.074;-1.796;2023-08-24T13:03:35;4.88;;;2.20;;
78410;SDS011;67706;51.074;-1.796;2023-08-24T13:06:01;5.97;;;2.58;;
78410;SDS011;67706;51.074;-1.796;2023-08-24T13:08:29;5.07;;;2.05;;
78410;SDS011;67706;51.074;-1.796;2023-08-24T13:10:56;4.10;;;1.88;;
78410;SDS011;67706;51.074;-1.796;2023-08-24T13:13:22;5.15;;;2.28;;
78410;SDS011;67706;51.074;-1.796;2023-08-24T13:15:49;4.07;;;2.00;;
78410;SDS011;67706;51.074;-1.796;2023-08-24T13:18:15;4.50;;;2.15;;
78410;SDS011;67706;51.074;-1.796;2023-08-24T13:20:41;4.43;;;1.98;;
78410;SDS011;67706;51.074;-1.796;2023-08-24T13:23:07;3.75;;;2.00;;
78410;SDS011;67706;51.074;-1.796;2023-08-24T13:25:34;5.30;;;1.80;;
78410;SDS011;67706;51.074;-1.796;2023-08-24T13:28:00;3.83;;;2.03;;
78410;SDS011;67706;51.074;-1.796;2023-08-24T13:30:26;4.63;;;1.80;;
78410;SDS011;67706;51.074;-1.796;2023-08-24T13:32:52;7.05;;;1.98;;
78410;SDS011;67706;51.074;-1.796;2023-08-24T13:35:18;3.45;;;2.08;;
78410;SDS011;67706;51.074;-1.796;2023-08-24T13:37:45;6.88;;;2.45;;
78410;SDS011;67706;51.074;-1.796;2023-08-24T13:40:11;3.13;;;1.55;;
78410;SDS011;67706;51.074;-1.796;2023-08-24T13:42:37;6.30;;;2.08;;
78410;SDS011;67706;51.074;-1.796;2023-08-24T13:45:03;4.28;;;2.28;;
78410;SDS011;67706;51.074;-1.796;2023-08-24T13:47:31;4.78;;;2.03;;
78410;SDS011;67706;51.074;-1.796;2023-08-24T13:49:57;3.65;;;1.95;;
78410;SDS011;67706;51.074;-1.796;2023-08-24T13:52:23;8.57;;;3.95;;
78410;SDS011;67706;51.074;-1.796;2023-08-24T13:54:50;3.53;;;1.92;;
78410;SDS011;67706;51.074;-1.796;2023-08-24T13:57:16;5.82;;;1.88;;
78410;SDS011;67706;51.074;-1.796;2023-08-24T13:59:42;4.30;;;2.08;;
78410;SDS011;67706;51.074;-1.796;2023-08-24T14:02:08;4.25;;;1.95;;
78410;SDS011;67706;51.074;-1.796;2023-08-24T14:04:36;4.32;;;2.15;;
78410;SDS011;67706;51.074;-1.796;2023-08-24T14:07:02;4.70;;;1.52;;
78410;SDS011;67706;51.074;-1.796;2023-08-24T14:09:28;2.92;;;1.17;;
78410;SDS011;67706;51.074;-1.796;2023-08-24T14:11:55;3.97;;;1.70;;
78410;SDS011;67706;51.074;-1.796;2023-08-24T14:14:22;3.40;;;1.77;;
78410;SDS011;67706;51.074;-1.796;2023-08-24T14:16:48;4.88;;;1.85;;
78410;SDS011;67706;51.074;-1.796;2023-08-24T14:19:19;5.00;;;2.03;;
78410;SDS011;67706;51.074;-1.796;2023-08-24T14:21:45;5.57;;;1.85;;
78410;SDS011;67706;51.074;-1.796;2023-08-24T14:24:11;3.03;;;1.38;;
78410;SDS011;67706;51.074;-1.796;2023-08-24T14:26:37;2.67;;;1.45;;
78410;SDS011;67706;51.074;-1.796;2023-08-24T14:29:05;4.20;;;1.42;;
78410;SDS011;67706;51.074;-1.796;2023-08-24T14:31:31;3.92;;;1.80;;
78410;SDS011;67706;51.074;-1.796;2023-08-24T14:33:57;3.88;;;1.30;;
78410;SDS011;67706;51.074;-1.796;2023-08-24T14:36:23;4.63;;;1.30;;
78410;SDS011;67706;51.074;-1.796;2023-08-24T14:38:50;2.30;;;1.20;;
78410;SDS011;67706;51.074;-1.796;2023-08-24T14:41:17;3.33;;;1.20;;
78410;SDS011;67706;51.074;-1.796;2023-08-24T14:43:44;1.85;;;1.20;;
78410;SDS011;67706;51.074;-1.796;2023-08-24T14:46:12;3.90;;;1.50;;
78410;SDS011;67706;51.074;-1.796;2023-08-24T14:48:39;2.97;;;1.00;;
78410;SDS011;67706;51.074;-1.796;2023-08-24T14:51:05;3.10;;;1.23;;
78410;SDS011;67706;51.074;-1.796;2023-08-24T14:53:31;3.28;;;1.10;;
78410;SDS011;67706;51.074;-1.796;2023-08-24T14:55:58;3.15;;;1.10;;
78410;SDS011;67706;51.074;-1.796;2023-08-24T14:58:24;1.48;;;0.70;;
78410;SDS011;67706;51.074;-1.796;2023-08-24T15:00:51;2.17;;;0.90;;
78410;SDS011;67706;51.074;-1.796;2023-08-24T15:03:19;3.10;;;1.23;;
78410;SDS011;67706;51.074;-1.796;2023-08-24T15:05:45;1.70;;;0.90;;
78410;SDS011;67706;51.074;-1.796;2023-08-24T15:08:21;2.10;;;1.10;;
78410;SDS011;67706;51.074;-1.796;2023-08-24T15:10:47;2.75;;;1.10;;
78410;SDS011;67706;51.074;-1.796;2023-08-24T15:13:13;2.13;;;1.00;;
78410;SDS011;67706;51.074;-1.796;2023-08-24T15:15:40;1.00;;;0.70;;
78410;SDS011;67706;51.074;-1.796;2023-08-24T15:18:06;3.33;;;0.90;;
78410;SDS011;67706;51.074;-1.796;2023-08-24T15:20:33;3.30;;;1.17;;
78410;SDS011;67706;51.074;-1.796;2023-08-24T15:22:59;3.17;;;1.27;;
78410;SDS011;67706;51.074;-1.796;2023-08-24T15:25:25;1.85;;;0.80;;
78410;SDS011;67706;51.074;-1.796;2023-08-24T15:27:51;4.30;;;1.42;;
78410;SDS011;67706;51.074;-1.796;2023-08-24T15:30:17;2.05;;;0.80;;
78410;SDS011;67706;51.074;-1.796;2023-08-24T15:32:44;3.63;;;1.10;;
78410;SDS011;67706;51.074;-1.796;2023-08-24T15:35:10;3.58;;;1.27;;
78410;SDS011;67706;51.074;-1.796;2023-08-24T15:37:36;2.47;;;1.25;;
78410;SDS011;67706;51.074;-1.796;2023-08-24T15:40:05;1.25;;;0.88;;
78410;SDS011;67706;51.074;-1.796;2023-08-24T15:42:31;2.45;;;1.05;;
78410;SDS011;67706;51.074;-1.796;2023-08-24T15:44:58;1.75;;;0.93;;
78410;SDS011;67706;51.074;-1.796;2023-08-24T15:47:24;1.73;;;0.80;;
78410;SDS011;67706;51.074;-1.796;2023-08-24T15:49:50;1.60;;;0.80;;
78410;SDS011;67706;51.074;-1.796;2023-08-24T15:52:16;1.00;;;0.63;;
78410;SDS011;67706;51.074;-1.796;2023-08-24T15:54:43;2.72;;;0.80;;
78410;SDS011;67706;51.074;-1.796;2023-08-24T15:57:09;1.35;;;0.68;;
78410;SDS011;67706;51.074;-1.796;2023-08-24T15:59:35;1.00;;;0.77;;
78410;SDS011;67706;51.074;-1.796;2023-08-24T16:02:01;1.55;;;0.75;;
78410;SDS011;67706;51.074;-1.796;2023-08-24T16:04:27;2.38;;;0.77;;
78410;SDS011;67706;51.074;-1.796;2023-08-24T16:06:53;0.93;;;0.60;;
78410;SDS011;67706;51.074;-1.796;2023-08-24T16:09:20;1.50;;;0.60;;
78410;SDS011;67706;51.074;-1.796;2023-08-24T16:11:46;2.05;;;0.82;;
78410;SDS011;67706;51.074;-1.796;2023-08-24T16:14:12;1.02;;;0.60;;
78410;SDS011;67706;51.074;-1.796;2023-08-24T16:16:38;1.10;;;0.40;;
78410;SDS011;67706;51.074;-1.796;2023-08-24T16:19:04;0.75;;;0.40;;